Terminal Aerodrome Forecast
Issued by NWS

Home | Current Version | Previous Version | Text Only | Print | Product List | Glossary On
Versions: 1 2 3 4 5 6 7 8 9 10 11 12 13 14 15
000
FTUS45 KRIW 160500
TAFCPR
TAF
KCPR 160531Z 1606/1706 01011KT 3SM -SN OVC015
     FM161300 01012KT 6SM -SN BKN025
     FM162300 02010KT 5SM -RASN SCT015 OVC025
     FM170500 01009KT P6SM VCSH SCT020 BKN035=

USA.gov is the U.S. government's official web portal to all federal, state and local government web resources and services.